Estación Meteorológica Peña el Pijo (Robertgarden) [ 11/20/18 00:31:17 CET ]

Fecha Hora Presion(HPa) Temp (°C) Humedad % Rocio (°C) Viento ( m/s) Direccion Lluvia 1Hora(mm) Lluvia 24H(mm) LLuvia Total(mm)
2018-Jan-05 01:01:43 1011.300 7.8 73 3.3         27.97
2018-Jan-05 02:02:12 1010.100 7.6 71 2.7         27.97
2018-Jan-05 03:02:58 1009.300 6.7 71 1.8         27.97
2018-Jan-05 04:02:19 1008.600 5.0 69 -0.2         27.97
2018-Jan-05 05:02:24 1008.200 6.1 70 1.1         27.97
2018-Jan-05 06:09:04 1007.500 5.6 71 0.8         27.97
2018-Jan-05 07:01:43 1006.500 4.1 71 -0.7 1.5 NNW     27.97
2018-Jan-05 08:01:55 1006.400 5.9 69 0.7 2.0 NNW     27.97
2018-Jan-05 09:01:36 1006.100 6.6 68 1.1 1.6 N     27.97
2018-Jan-05 10:02:02 1006.300 8.8 65 2.6 2.6 NNW     27.97
2018-Jan-05 11:01:34 1005.600 10.6 58 2.6 6.8 WNW     27.97
2018-Jan-05 12:01:49 1005.000 11.9 52 2.3 2.1 N     27.97
2018-Jan-05 13:01:33 1003.800 12.3 51 2.4 2.0 NNW     27.97
2018-Jan-05 14:01:38 1002.500 13.1 49 2.6 2.5 NW     27.97
2018-Jan-05 15:01:50 1001.600 13.8 47 2.6 5.4 N     27.97
2018-Jan-05 16:01:36 1001.200 12.6 50 2.4 3.0 NNW     27.97
2018-Jan-05 17:01:31 1000.700 9.7 57 1.6 0.5 NNE     27.97
2018-Jan-05 18:01:41 1000.100 8.2 60 0.9         27.97
2018-Jan-05 19:01:38 999.800 6.5 65 0.4         27.97
2018-Jan-05 20:01:44 999.400 5.6 69 0.4         27.97
2018-Jan-05 21:01:22 998.500 4.3 70 -0.7         27.97
2018-Jan-05 22:01:50 998.100 3.2 72 -1.4         27.97
2018-Jan-05 23:01:48 997.700 1.3 75 -2.7         27.97

Temperatura Máxima:13°    Temperatura Mínima:
Presión Máxima:1011.300 Hpa    Presión Mínima:997.700 Hpa


Volver